createdAt,value
2018-06-11T00:01:43.131Z,56.86
2018-06-11T00:04:11.815Z,57.03
2018-06-11T00:06:40.518Z,56.43
2018-06-11T00:09:09.443Z,56.32
2018-06-11T00:11:38.093Z,56.12
2018-06-11T00:14:06.810Z,56.03
2018-06-11T00:16:35.283Z,55.91
2018-06-11T00:19:03.826Z,56.42
2018-06-11T00:21:32.307Z,56.40
2018-06-11T00:24:00.917Z,56.69
2018-06-11T00:26:29.444Z,56.14
2018-06-11T00:28:58.080Z,56.21
2018-06-11T00:31:26.701Z,56.33
2018-06-11T00:33:55.311Z,55.51
2018-06-11T00:36:23.827Z,55.74
2018-06-11T00:38:52.395Z,55.32
2018-06-11T00:41:20.929Z,55.81
2018-06-11T00:43:49.505Z,55.93
2018-06-11T00:46:18.097Z,56.16
2018-06-11T00:48:46.630Z,56.03
2018-06-11T00:51:15.127Z,56.31
2018-06-11T00:53:43.653Z,56.18
2018-06-11T00:56:12.174Z,56.17
2018-06-11T00:58:40.669Z,56.49
2018-06-11T01:01:09.253Z,56.45
2018-06-11T01:03:37.851Z,57.08
2018-06-11T01:06:06.407Z,57.18
2018-06-11T01:08:35.028Z,57.23
2018-06-11T01:11:03.643Z,56.78
2018-06-11T01:13:32.269Z,57.32
2018-06-11T01:16:00.795Z,57.56
2018-06-11T01:18:29.319Z,56.96
2018-06-11T01:20:57.817Z,57.08
2018-06-11T01:23:26.362Z,56.79
2018-06-11T01:25:54.984Z,57.21
2018-06-11T01:28:23.444Z,56.80
2018-06-11T01:30:51.991Z,56.80
2018-06-11T01:33:20.528Z,57.50
2018-06-11T01:35:49.016Z,57.40
2018-06-11T01:38:17.584Z,57.45
2018-06-11T01:40:46.133Z,57.00
2018-06-11T01:43:14.705Z,56.97
2018-06-11T01:45:43.231Z,57.17
2018-06-11T01:48:12.895Z,57.20
2018-06-11T01:50:41.479Z,57.15
2018-06-11T01:53:11.053Z,57.37
2018-06-11T01:55:39.632Z,56.71
2018-06-11T01:58:08.466Z,57.22
2018-06-11T02:00:37.081Z,57.50
2018-06-11T02:03:05.736Z,57.00
2018-06-11T02:05:34.243Z,56.88
2018-06-11T02:08:02.789Z,57.83
2018-06-11T02:10:31.423Z,57.09
2018-06-11T02:12:59.950Z,57.22
2018-06-11T02:15:28.546Z,57.58
2018-06-11T02:17:57.118Z,57.18
2018-06-11T02:20:25.690Z,57.55
2018-06-11T02:22:54.299Z,57.57
2018-06-11T02:25:22.851Z,57.36
2018-06-11T02:27:51.433Z,57.23
2018-06-11T02:30:20.046Z,57.74
2018-06-11T02:32:48.651Z,57.22
2018-06-11T02:35:17.214Z,57.43
2018-06-11T02:37:45.813Z,57.41
2018-06-11T02:40:14.356Z,57.33
2018-06-11T02:42:42.989Z,57.49
2018-06-11T02:45:11.664Z,57.53
2018-06-11T02:47:40.367Z,57.43
2018-06-11T02:50:09.037Z,57.77
2018-06-11T02:52:37.787Z,57.72
2018-06-11T02:55:06.559Z,57.49
2018-06-11T02:57:35.337Z,57.34
2018-06-11T03:00:04.012Z,57.66
2018-06-11T03:02:32.670Z,57.49
2018-06-11T03:05:01.356Z,57.34
2018-06-11T03:07:29.927Z,57.91
2018-06-11T03:09:58.574Z,57.26
2018-06-11T03:12:27.249Z,57.87
2018-06-11T03:14:55.894Z,57.49
2018-06-11T03:17:24.539Z,57.55
2018-06-11T03:19:53.226Z,58.13
2018-06-11T03:22:21.924Z,57.46
2018-06-11T03:24:51.400Z,57.76
2018-06-11T03:27:20.012Z,58.30
2018-06-11T03:29:48.756Z,57.54
2018-06-11T03:32:17.396Z,57.65
2018-06-11T03:34:46.092Z,58.26
2018-06-11T03:37:14.887Z,58.58
2018-06-11T03:39:43.545Z,57.93
2018-06-11T03:42:12.255Z,57.49
2018-06-11T03:44:40.803Z,57.45
2018-06-11T03:47:09.356Z,57.85
2018-06-11T03:49:37.966Z,58.15
2018-06-11T03:52:06.724Z,57.46
2018-06-11T03:54:35.204Z,57.31
2018-06-11T03:57:03.816Z,57.49
2018-06-11T03:59:32.656Z,58.29
2018-06-11T04:02:01.209Z,57.47
2018-06-11T04:04:29.854Z,57.63
2018-06-11T04:06:58.488Z,58.07
2018-06-11T04:09:27.061Z,57.26
2018-06-11T04:11:55.609Z,57.28
2018-06-11T04:14:24.164Z,58.15
2018-06-11T04:16:52.818Z,57.68
2018-06-11T04:19:21.328Z,57.73
2018-06-11T04:21:49.938Z,57.54
2018-06-11T04:24:18.536Z,57.91
2018-06-11T04:26:48.486Z,57.60
2018-06-11T04:29:17.067Z,58.03
2018-06-11T04:31:45.598Z,57.41
2018-06-11T04:34:14.159Z,57.99
2018-06-11T04:36:42.674Z,57.82
2018-06-11T04:39:11.172Z,57.24
2018-06-11T04:41:40.207Z,57.96
2018-06-11T04:44:08.917Z,57.72
2018-06-11T04:46:37.646Z,57.06
2018-06-11T04:49:06.397Z,56.71
2018-06-11T04:51:34.995Z,56.72
2018-06-11T04:54:03.543Z,56.68
2018-06-11T04:56:32.264Z,56.39
2018-06-11T04:59:00.849Z,56.85
2018-06-11T05:01:29.463Z,56.93
2018-06-11T05:03:58.075Z,56.29
2018-06-11T05:06:26.659Z,56.41
2018-06-11T05:08:55.782Z,56.99
2018-06-11T05:11:24.542Z,55.80
2018-06-11T05:13:53.244Z,56.04
2018-06-11T05:16:21.964Z,56.11
2018-06-11T05:18:50.701Z,56.29
2018-06-11T05:21:19.374Z,56.27
2018-06-11T05:23:48.127Z,56.08
2018-06-11T05:26:16.794Z,56.07
2018-06-11T05:28:45.455Z,55.64
2018-06-11T05:31:14.140Z,55.69
2018-06-11T05:33:42.871Z,55.05
2018-06-11T05:36:11.799Z,55.15
2018-06-11T05:38:40.410Z,54.18
2018-06-11T05:41:09.174Z,54.29
2018-06-11T05:43:38.109Z,54.07
2018-06-11T05:46:06.888Z,54.28
2018-06-11T05:48:35.793Z,53.92
2018-06-11T05:51:04.512Z,53.65
2018-06-11T05:53:33.160Z,53.06
2018-06-11T05:56:01.765Z,53.54
2018-06-11T05:58:30.400Z,53.07
2018-06-11T06:00:58.915Z,52.66
2018-06-11T06:03:27.456Z,52.88
2018-06-11T06:05:56.120Z,53.28
2018-06-11T06:08:25.944Z,52.71
2018-06-11T06:10:54.832Z,52.22
2018-06-11T06:13:23.481Z,52.26
2018-06-11T06:15:52.184Z,53.06
2018-06-11T06:18:20.877Z,52.50
2018-06-11T06:20:49.399Z,52.54
2018-06-11T06:23:18.049Z,52.77
2018-06-11T06:25:46.727Z,52.94
2018-06-11T06:28:15.318Z,53.21
2018-06-11T06:30:43.832Z,52.72
2018-06-11T06:33:12.500Z,53.74
2018-06-11T06:35:41.390Z,53.34
2018-06-11T06:38:10.295Z,52.89
2018-06-11T06:40:39.085Z,52.26
2018-06-11T06:43:08.757Z,51.93
2018-06-11T06:45:38.062Z,51.45
2018-06-11T06:48:06.706Z,50.73
2018-06-11T06:50:36.254Z,50.60
2018-06-11T06:53:05.587Z,50.74
2018-06-11T06:55:34.207Z,50.51
2018-06-11T06:58:03.360Z,49.64
2018-06-11T07:00:32.568Z,49.92
2018-06-11T07:03:01.504Z,49.04
2018-06-11T07:05:30.132Z,49.56
2018-06-11T07:07:58.946Z,49.36
2018-06-11T07:10:28.204Z,49.04
2018-06-11T07:12:56.795Z,48.43
2018-06-11T07:15:25.445Z,47.94
2018-06-11T07:17:54.160Z,47.98
2018-06-11T07:20:22.933Z,49.35
2018-06-11T07:22:52.522Z,47.40
2018-06-11T07:27:55.780Z,47.41
2018-06-11T07:30:24.631Z,46.21
2018-06-11T07:32:53.328Z,46.18
2018-06-11T07:35:22.193Z,45.24
2018-06-11T07:37:50.878Z,44.75
2018-06-11T07:40:19.807Z,44.58
2018-06-11T07:42:48.352Z,44.38
2018-06-11T07:45:17.442Z,44.21
2018-06-11T07:47:46.220Z,42.95
2018-06-11T07:50:14.921Z,42.73
2018-06-11T07:52:43.467Z,40.77
2018-06-11T07:55:12.304Z,40.10
2018-06-11T07:57:40.976Z,40.29
2018-06-11T08:00:09.541Z,39.70
2018-06-11T08:02:38.005Z,39.18
2018-06-11T08:05:06.732Z,38.85
2018-06-11T08:07:35.430Z,38.74
2018-06-11T08:10:04.219Z,36.82
2018-06-11T08:12:33.302Z,36.26
2018-06-11T08:15:02.667Z,36.42
2018-06-11T08:17:31.234Z,37.93
2018-06-11T08:19:59.956Z,37.65
2018-06-11T08:22:28.691Z,38.42
2018-06-11T08:24:57.251Z,37.59
2018-06-11T08:27:26.012Z,38.65
2018-06-11T08:29:54.639Z,37.30
2018-06-11T08:32:23.114Z,37.93
2018-06-11T08:34:51.705Z,37.24
2018-06-11T08:37:20.292Z,36.41
2018-06-11T08:39:48.851Z,34.00
2018-06-11T08:42:17.422Z,32.40
2018-06-11T08:44:46.059Z,31.27
2018-06-11T08:47:14.720Z,31.74
2018-06-11T08:49:43.417Z,31.77
2018-06-11T08:52:11.912Z,31.58
2018-06-11T08:54:40.612Z,30.79
2018-06-11T08:57:09.217Z,30.80
2018-06-11T08:59:37.824Z,30.96
2018-06-11T09:02:06.405Z,31.36
2018-06-11T09:04:34.988Z,31.73
2018-06-11T09:07:03.660Z,31.36
2018-06-11T09:09:32.407Z,31.53
2018-06-11T09:12:01.232Z,31.07
2018-06-11T09:14:30.009Z,30.71
2018-06-11T09:16:58.521Z,31.21
2018-06-11T09:19:27.930Z,31.63
2018-06-11T09:21:56.465Z,31.24
2018-06-11T09:24:25.077Z,30.80
2018-06-11T09:26:53.745Z,29.82
2018-06-11T09:29:22.537Z,28.87
2018-06-11T09:31:51.074Z,28.81
2018-06-11T09:34:20.677Z,29.28
2018-06-11T09:36:49.367Z,28.61
2018-06-11T09:39:17.979Z,29.05
2018-06-11T09:41:46.600Z,28.46
2018-06-11T09:44:15.241Z,28.43
2018-06-11T09:46:43.894Z,28.56
2018-06-11T09:49:12.520Z,28.78
2018-06-11T09:51:41.124Z,29.85
2018-06-11T09:54:09.708Z,30.39
2018-06-11T09:56:38.220Z,30.08
2018-06-11T09:59:06.767Z,30.07
2018-06-11T10:01:35.387Z,29.68
2018-06-11T10:04:03.992Z,31.09
2018-06-11T10:06:32.686Z,28.25
2018-06-11T10:09:01.436Z,26.38
2018-06-11T10:11:30.088Z,26.20
2018-06-11T10:13:58.650Z,26.24
2018-06-11T10:16:27.267Z,26.36
2018-06-11T10:18:56.023Z,25.06
2018-06-11T10:21:24.815Z,24.16
2018-06-11T10:23:53.557Z,23.08
2018-06-11T10:26:22.288Z,22.90
2018-06-11T10:28:51.061Z,21.93
2018-06-11T10:31:19.949Z,21.46
2018-06-11T10:33:48.656Z,21.56
2018-06-11T10:36:17.392Z,21.13
2018-06-11T10:38:46.041Z,20.89
2018-06-11T10:41:14.773Z,20.16
2018-06-11T10:43:43.429Z,19.68
2018-06-11T10:46:12.162Z,19.58
2018-06-11T10:48:40.903Z,18.70
2018-06-11T10:51:09.560Z,18.21
2018-06-11T10:53:38.376Z,18.55
2018-06-11T10:56:06.958Z,18.85
2018-06-11T10:58:35.619Z,19.21
2018-06-11T11:01:04.257Z,19.87
2018-06-11T11:03:32.883Z,20.35
2018-06-11T11:06:01.624Z,19.82
2018-06-11T11:08:30.274Z,19.32
2018-06-11T11:10:58.944Z,19.50
2018-06-11T11:13:27.753Z,19.56
2018-06-11T11:15:56.360Z,20.63
2018-06-11T11:18:24.892Z,20.88
2018-06-11T11:20:53.523Z,20.87
2018-06-11T11:23:22.391Z,21.33
2018-06-11T11:25:51.107Z,21.04
2018-06-11T11:28:19.832Z,21.50
2018-06-11T11:30:48.480Z,22.50
2018-06-11T11:33:17.258Z,24.07
2018-06-11T11:35:45.939Z,25.21
2018-06-11T11:38:15.524Z,25.86
2018-06-11T11:40:44.288Z,26.47
2018-06-11T11:43:13.135Z,27.74
2018-06-11T11:45:41.722Z,28.96
2018-06-11T11:48:10.659Z,29.39
2018-06-11T11:50:40.054Z,29.36
2018-06-11T11:53:09.048Z,29.66
2018-06-11T11:55:38.099Z,30.24
2018-06-11T11:58:07.090Z,30.46
2018-06-11T12:00:36.195Z,31.07
2018-06-11T12:03:05.368Z,31.28
2018-06-11T12:05:36.454Z,31.64
2018-06-11T12:08:05.295Z,30.99
2018-06-11T12:10:34.367Z,31.05
2018-06-11T12:13:03.552Z,31.42
2018-06-11T12:15:34.071Z,31.46
2018-06-11T12:18:03.766Z,30.99
2018-06-11T12:20:34.071Z,31.51
2018-06-11T12:23:02.679Z,32.03
2018-06-11T12:25:31.618Z,31.92
2018-06-11T12:28:00.380Z,32.26
2018-06-11T12:30:29.031Z,30.87
2018-06-11T12:32:57.668Z,31.29
2018-06-11T12:35:26.297Z,31.43
2018-06-11T12:37:54.846Z,30.93
2018-06-11T12:40:23.281Z,31.63
2018-06-11T12:42:52.178Z,31.29
2018-06-11T12:45:21.053Z,32.37
2018-06-11T12:47:49.893Z,31.77
2018-06-11T12:50:18.350Z,31.28
2018-06-11T12:52:47.040Z,30.06
2018-06-11T12:55:16.177Z,30.61
2018-06-11T12:57:45.241Z,31.30
2018-06-11T13:00:14.064Z,30.60
2018-06-11T13:02:42.878Z,30.10
2018-06-11T13:05:13.377Z,30.12
2018-06-11T13:07:42.297Z,30.52
2018-06-11T13:10:11.076Z,30.72
2018-06-11T13:12:40.174Z,30.94
2018-06-11T13:15:09.269Z,30.69
2018-06-11T13:17:38.403Z,30.17
2018-06-11T13:20:07.385Z,30.13
2018-06-11T13:22:36.563Z,28.89
2018-06-11T13:25:06.159Z,28.48
2018-06-11T13:27:35.079Z,28.41
2018-06-11T13:30:04.005Z,28.17
2018-06-11T13:32:35.101Z,28.67
2018-06-11T13:35:04.217Z,28.58
2018-06-11T13:37:32.871Z,29.36
2018-06-11T13:40:01.908Z,29.54
2018-06-11T13:42:30.699Z,29.26
2018-06-11T13:44:59.402Z,28.93
2018-06-11T13:47:28.006Z,28.38
2018-06-11T13:49:56.784Z,27.93
2018-06-11T13:52:26.589Z,28.06
2018-06-11T13:54:55.253Z,27.68
2018-06-11T13:57:24.177Z,27.55
2018-06-11T13:59:52.827Z,27.74
2018-06-11T14:02:21.632Z,28.06
2018-06-11T14:04:50.655Z,29.14
2018-06-11T14:07:19.412Z,28.65
2018-06-11T14:09:48.401Z,28.30
2018-06-11T14:12:17.935Z,28.68
2018-06-11T14:14:46.682Z,29.59
2018-06-11T14:17:15.334Z,28.86
2018-06-11T14:19:43.976Z,28.32
2018-06-11T14:22:12.646Z,29.15
2018-06-11T14:24:41.479Z,29.37
2018-06-11T14:27:10.233Z,28.28
2018-06-11T14:29:39.286Z,29.10
2018-06-11T14:32:08.655Z,28.97
2018-06-11T14:34:37.635Z,28.37
2018-06-11T14:37:06.646Z,28.82
2018-06-11T14:39:35.712Z,28.69
2018-06-11T14:42:04.845Z,29.50
2018-06-11T14:44:34.712Z,29.62
2018-06-11T14:47:03.940Z,28.79
2018-06-11T14:49:32.858Z,29.06
2018-06-11T14:52:01.701Z,28.94
2018-06-11T14:54:30.602Z,29.04
2018-06-11T14:57:00.736Z,29.24
2018-06-11T14:59:29.946Z,29.93
2018-06-11T15:01:58.900Z,29.46
2018-06-11T15:04:27.632Z,30.59
2018-06-11T15:06:56.500Z,30.83
2018-06-11T15:09:25.540Z,31.17
2018-06-11T15:11:54.200Z,31.11
2018-06-11T15:14:22.935Z,30.30
2018-06-11T15:16:51.915Z,30.33
2018-06-11T15:19:20.731Z,31.03
2018-06-11T15:21:49.370Z,31.29
2018-06-11T15:24:18.147Z,30.58
2018-06-11T15:26:46.753Z,29.31
2018-06-11T15:29:15.504Z,29.57
2018-06-11T15:31:44.119Z,28.98
2018-06-11T15:34:12.809Z,29.54
2018-06-11T15:36:41.548Z,29.59
2018-06-11T15:39:10.252Z,30.17
2018-06-11T15:41:38.889Z,29.89
2018-06-11T15:44:07.830Z,29.97
2018-06-11T15:46:36.605Z,29.50
2018-06-11T15:49:05.285Z,30.63
2018-06-11T15:51:34.061Z,30.00
2018-06-11T15:54:02.731Z,31.00
2018-06-11T15:56:31.531Z,30.24
2018-06-11T15:59:00.437Z,30.50
2018-06-11T16:01:29.203Z,31.55
2018-06-11T16:03:58.056Z,30.74
2018-06-11T16:06:26.616Z,31.12
2018-06-11T16:08:56.462Z,31.15
2018-06-11T16:11:25.304Z,31.53
2018-06-11T16:13:53.877Z,32.62
2018-06-11T16:16:22.794Z,31.49
2018-06-11T16:18:51.458Z,32.51
2018-06-11T16:21:20.230Z,32.88
2018-06-11T16:23:48.836Z,32.00
2018-06-11T16:26:18.310Z,32.39
2018-06-11T16:28:47.008Z,33.29
2018-06-11T16:31:15.835Z,32.93
2018-06-11T16:33:44.706Z,32.30
2018-06-11T16:36:13.357Z,33.10
2018-06-11T16:38:41.985Z,32.61
2018-06-11T16:41:10.671Z,33.50
2018-06-11T16:43:39.540Z,32.71
2018-06-11T16:46:08.321Z,33.53
2018-06-11T16:48:37.136Z,33.12
2018-06-11T16:51:05.922Z,33.14
2018-06-11T16:53:34.678Z,33.88
2018-06-11T16:56:03.329Z,33.29
2018-06-11T16:58:31.976Z,34.31
2018-06-11T17:01:00.579Z,33.85
2018-06-11T17:03:29.247Z,33.79
2018-06-11T17:05:57.813Z,34.48
2018-06-11T17:08:26.399Z,34.46
2018-06-11T17:10:55.097Z,34.36
2018-06-11T17:13:24.044Z,34.27
2018-06-11T17:15:52.761Z,34.04
2018-06-11T17:18:21.520Z,34.99
2018-06-11T17:20:50.170Z,34.11
2018-06-11T17:23:18.931Z,34.37
2018-06-11T17:25:47.721Z,35.01
2018-06-11T17:28:16.730Z,34.93
2018-06-11T17:30:45.244Z,34.62
2018-06-11T17:33:13.732Z,34.66
2018-06-11T17:35:42.643Z,35.04
2018-06-11T17:38:11.307Z,36.03
2018-06-11T17:40:40.034Z,35.85
2018-06-11T17:43:08.762Z,34.91
2018-06-11T17:45:37.322Z,35.83
2018-06-11T17:48:06.047Z,35.75
2018-06-11T17:50:34.752Z,36.09
2018-06-11T17:53:03.351Z,37.33
2018-06-11T17:55:31.933Z,36.89
2018-06-11T17:58:00.428Z,37.41
2018-06-11T18:00:29.008Z,38.62
2018-06-11T18:02:57.497Z,38.20
2018-06-11T18:05:26.138Z,37.63
2018-06-11T18:07:54.643Z,37.87
2018-06-11T18:10:23.239Z,37.96
2018-06-11T18:12:51.774Z,37.72
2018-06-11T18:15:20.447Z,38.12
2018-06-11T18:17:50.667Z,37.71
2018-06-11T18:20:19.211Z,37.83
2018-06-11T18:22:47.743Z,36.74
2018-06-11T18:25:16.387Z,37.67
2018-06-11T18:27:44.934Z,37.23
2018-06-11T18:30:13.532Z,37.29
2018-06-11T18:32:42.275Z,38.03
2018-06-11T18:35:10.943Z,37.67
2018-06-11T18:37:39.512Z,37.56
2018-06-11T18:40:08.243Z,38.30
2018-06-11T18:42:36.880Z,37.99
2018-06-11T18:45:05.552Z,37.97
2018-06-11T18:47:34.118Z,38.33
2018-06-11T18:50:02.721Z,37.94
2018-06-11T18:52:31.410Z,37.98
2018-06-11T18:55:00.130Z,39.05
2018-06-11T18:57:28.878Z,37.85
2018-06-11T18:59:57.470Z,38.16
2018-06-11T19:02:26.149Z,38.37
2018-06-11T19:04:54.818Z,37.77
2018-06-11T19:07:23.346Z,37.94
2018-06-11T19:09:52.028Z,38.25
2018-06-11T19:12:20.797Z,38.24
2018-06-11T19:14:49.432Z,38.99
2018-06-11T19:17:18.020Z,39.05
2018-06-11T19:19:46.718Z,39.64
2018-06-11T19:22:15.329Z,39.46
2018-06-11T19:24:44.096Z,39.28
2018-06-11T19:27:13.968Z,39.35
2018-06-11T19:29:42.603Z,38.89
2018-06-11T19:32:11.321Z,39.55
2018-06-11T19:34:39.983Z,40.08
2018-06-11T19:37:12.769Z,39.91
2018-06-11T19:39:46.161Z,39.95
2018-06-11T19:42:15.171Z,39.80
2018-06-11T19:44:43.872Z,39.26
2018-06-11T19:47:12.490Z,40.21
2018-06-11T19:49:41.588Z,39.36
2018-06-11T19:52:13.920Z,39.54
2018-06-11T19:54:44.910Z,39.62
2018-06-11T19:57:13.727Z,40.39
2018-06-11T19:59:42.669Z,40.25
2018-06-11T20:02:13.353Z,39.77
2018-06-11T20:04:42.181Z,40.57
2018-06-11T20:07:10.970Z,40.21
2018-06-11T20:09:39.636Z,40.86
2018-06-11T20:12:08.375Z,40.34
2018-06-11T20:14:38.091Z,40.44
2018-06-11T20:17:06.915Z,40.79
2018-06-11T20:19:35.639Z,40.95
2018-06-11T20:22:04.352Z,40.43
2018-06-11T20:24:33.144Z,41.24
2018-06-11T20:27:02.253Z,40.41
2018-06-11T20:29:31.098Z,41.32
2018-06-11T20:32:00.093Z,41.54
2018-06-11T20:34:28.912Z,41.50
2018-06-11T20:36:57.811Z,41.07
2018-06-11T20:39:26.543Z,41.71
2018-06-11T20:41:55.249Z,41.56
2018-06-11T20:44:23.934Z,41.24
2018-06-11T20:46:52.684Z,41.79
2018-06-11T20:49:21.540Z,41.79
2018-06-11T20:51:50.215Z,41.85
2018-06-11T20:54:18.853Z,41.32
2018-06-11T20:56:47.621Z,41.49
2018-06-11T20:59:16.251Z,42.39
2018-06-11T21:01:44.984Z,42.52
2018-06-11T21:04:13.868Z,42.38
2018-06-11T21:06:42.592Z,42.16
2018-06-11T21:09:11.254Z,42.06
2018-06-11T21:11:40.054Z,42.75
2018-06-11T21:14:08.805Z,42.31
2018-06-11T21:16:37.621Z,42.29
2018-06-11T21:19:06.273Z,43.06
2018-06-11T21:21:34.987Z,42.88
2018-06-11T21:24:03.804Z,42.30
2018-06-11T21:26:32.495Z,43.24
2018-06-11T21:29:01.188Z,43.10
2018-06-11T21:31:29.799Z,42.77
2018-06-11T21:33:58.522Z,42.74
2018-06-11T21:36:27.197Z,42.41
2018-06-11T21:38:55.909Z,42.56
2018-06-11T21:41:25.048Z,42.80
2018-06-11T21:43:53.769Z,43.48
2018-06-11T21:46:22.501Z,42.60
2018-06-11T21:48:51.424Z,42.72
2018-06-11T21:51:20.064Z,43.17
2018-06-11T21:53:48.723Z,43.46
2018-06-11T21:56:17.294Z,42.81
2018-06-11T21:58:45.878Z,42.72
2018-06-11T22:01:14.464Z,43.06
2018-06-11T22:03:43.101Z,43.48
2018-06-11T22:06:11.596Z,42.75
2018-06-11T22:08:40.316Z,42.71
2018-06-11T22:11:08.955Z,42.59
2018-06-11T22:13:37.677Z,43.50
2018-06-11T22:16:06.305Z,43.39
2018-06-11T22:18:35.010Z,43.44
2018-06-11T22:21:03.659Z,42.66
2018-06-11T22:23:32.344Z,42.81
2018-06-11T22:26:00.992Z,43.45
2018-06-11T22:28:29.702Z,43.09
2018-06-11T22:30:58.335Z,43.70
2018-06-11T22:33:27.190Z,43.09
2018-06-11T22:35:55.896Z,42.95
2018-06-11T22:38:24.578Z,43.15
2018-06-11T22:40:53.341Z,43.62
2018-06-11T22:43:22.128Z,43.71
2018-06-11T22:45:50.733Z,44.57
2018-06-11T22:48:19.311Z,43.89
2018-06-11T22:50:47.890Z,44.46
2018-06-11T22:53:16.524Z,44.46
2018-06-11T22:55:45.224Z,45.17
2018-06-11T22:58:13.850Z,45.52
2018-06-11T23:00:42.478Z,45.59
2018-06-11T23:03:11.103Z,45.53
2018-06-11T23:05:39.758Z,46.07
2018-06-11T23:08:08.416Z,45.81
2018-06-11T23:10:37.065Z,46.08
2018-06-11T23:13:05.821Z,46.23
2018-06-11T23:15:34.587Z,46.46
2018-06-11T23:18:03.226Z,46.37
2018-06-11T23:20:31.867Z,47.57
2018-06-11T23:23:00.527Z,47.64
2018-06-11T23:25:29.291Z,47.82
2018-06-11T23:27:57.946Z,47.34
2018-06-11T23:30:26.627Z,48.55
2018-06-11T23:32:55.208Z,48.67
2018-06-11T23:35:23.864Z,48.69
2018-06-11T23:37:52.525Z,48.70
2018-06-11T23:40:21.182Z,49.03
2018-06-11T23:42:49.824Z,48.28
2018-06-11T23:45:18.431Z,48.63
2018-06-11T23:47:47.159Z,49.62
2018-06-11T23:50:15.896Z,49.47
2018-06-11T23:52:44.651Z,48.90
2018-06-11T23:55:13.363Z,49.32
2018-06-11T23:57:42.247Z,49.87
